sensor_id;sensor_type;location;lat;lon;timestamp;P1;durP1;ratioP1;P2;durP2;ratioP2
55146;SDS011;41039;49.830;23.988;2022-08-19T00:01:19;13.75;;;8.80;;
55146;SDS011;41039;49.830;23.988;2022-08-19T00:03:44;13.57;;;8.90;;
55146;SDS011;41039;49.830;23.988;2022-08-19T00:06:09;10.30;;;8.25;;
55146;SDS011;41039;49.830;23.988;2022-08-19T00:08:35;12.13;;;9.50;;
55146;SDS011;41039;49.830;23.988;2022-08-19T00:11:00;11.70;;;8.57;;
55146;SDS011;41039;49.830;23.988;2022-08-19T00:13:25;13.73;;;8.83;;
55146;SDS011;41039;49.830;23.988;2022-08-19T00:15:51;11.07;;;8.85;;
55146;SDS011;41039;49.830;23.988;2022-08-19T00:18:16;10.33;;;9.23;;
55146;SDS011;41039;49.830;23.988;2022-08-19T00:20:42;12.37;;;9.40;;
55146;SDS011;41039;49.830;23.988;2022-08-19T00:23:07;10.80;;;9.15;;
55146;SDS011;41039;49.830;23.988;2022-08-19T00:25:32;11.27;;;8.75;;
55146;SDS011;41039;49.830;23.988;2022-08-19T00:27:58;10.07;;;8.38;;
55146;SDS011;41039;49.830;23.988;2022-08-19T00:30:24;10.68;;;8.30;;
55146;SDS011;41039;49.830;23.988;2022-08-19T00:32:49;11.98;;;8.90;;
55146;SDS011;41039;49.830;23.988;2022-08-19T00:35:15;10.55;;;8.75;;
55146;SDS011;41039;49.830;23.988;2022-08-19T00:37:41;13.15;;;9.73;;
55146;SDS011;41039;49.830;23.988;2022-08-19T00:40:09;12.30;;;9.30;;
55146;SDS011;41039;49.830;23.988;2022-08-19T00:42:35;13.18;;;9.27;;
55146;SDS011;41039;49.830;23.988;2022-08-19T00:45:00;12.75;;;9.35;;
55146;SDS011;41039;49.830;23.988;2022-08-19T00:47:25;10.10;;;9.10;;
55146;SDS011;41039;49.830;23.988;2022-08-19T00:49:52;11.55;;;9.57;;
55146;SDS011;41039;49.830;23.988;2022-08-19T00:52:20;9.85;;;8.80;;
55146;SDS011;41039;49.830;23.988;2022-08-19T00:54:45;12.05;;;9.38;;
55146;SDS011;41039;49.830;23.988;2022-08-19T00:57:14;13.18;;;9.18;;
55146;SDS011;41039;49.830;23.988;2022-08-19T00:59:40;10.27;;;9.18;;
55146;SDS011;41039;49.830;23.988;2022-08-19T01:02:07;12.35;;;10.00;;
55146;SDS011;41039;49.830;23.988;2022-08-19T01:04:32;13.23;;;9.20;;
55146;SDS011;41039;49.830;23.988;2022-08-19T01:06:57;10.93;;;9.02;;
55146;SDS011;41039;49.830;23.988;2022-08-19T01:09:23;10.27;;;9.10;;
55146;SDS011;41039;49.830;23.988;2022-08-19T01:11:49;9.90;;;8.35;;
55146;SDS011;41039;49.830;23.988;2022-08-19T01:14:14;11.73;;;9.23;;
55146;SDS011;41039;49.830;23.988;2022-08-19T01:16:41;12.98;;;8.52;;
55146;SDS011;41039;49.830;23.988;2022-08-19T01:19:12;11.00;;;9.30;;
55146;SDS011;41039;49.830;23.988;2022-08-19T01:21:42;10.90;;;8.98;;
55146;SDS011;41039;49.830;23.988;2022-08-19T01:24:09;11.55;;;9.57;;
55146;SDS011;41039;49.830;23.988;2022-08-19T01:26:38;11.25;;;8.95;;
55146;SDS011;41039;49.830;23.988;2022-08-19T01:29:03;10.85;;;8.73;;
55146;SDS011;41039;49.830;23.988;2022-08-19T01:31:29;12.83;;;10.07;;
55146;SDS011;41039;49.830;23.988;2022-08-19T01:33:57;13.73;;;9.18;;
55146;SDS011;41039;49.830;23.988;2022-08-19T01:36:27;11.35;;;9.45;;
55146;SDS011;41039;49.830;23.988;2022-08-19T01:38:54;12.43;;;9.43;;
55146;SDS011;41039;49.830;23.988;2022-08-19T01:41:19;12.30;;;9.68;;
55146;SDS011;41039;49.830;23.988;2022-08-19T01:43:45;14.77;;;9.85;;
55146;SDS011;41039;49.830;23.988;2022-08-19T01:46:10;12.73;;;10.68;;
55146;SDS011;41039;49.830;23.988;2022-08-19T01:48:37;14.70;;;10.52;;
55146;SDS011;41039;49.830;23.988;2022-08-19T01:51:02;17.02;;;11.35;;
55146;SDS011;41039;49.830;23.988;2022-08-19T01:53:27;13.88;;;10.63;;
55146;SDS011;41039;49.830;23.988;2022-08-19T01:55:53;14.95;;;9.93;;
55146;SDS011;41039;49.830;23.988;2022-08-19T01:58:19;12.02;;;10.07;;
55146;SDS011;41039;49.830;23.988;2022-08-19T02:00:46;14.52;;;11.00;;
55146;SDS011;41039;49.830;23.988;2022-08-19T02:03:11;14.05;;;12.48;;
55146;SDS011;41039;49.830;23.988;2022-08-19T02:05:37;18.83;;;12.00;;
55146;SDS011;41039;49.830;23.988;2022-08-19T02:08:02;15.90;;;11.05;;
55146;SDS011;41039;49.830;23.988;2022-08-19T02:10:28;12.82;;;11.13;;
55146;SDS011;41039;49.830;23.988;2022-08-19T02:12:53;12.85;;;11.55;;
55146;SDS011;41039;49.830;23.988;2022-08-19T02:15:19;16.50;;;11.52;;
55146;SDS011;41039;49.830;23.988;2022-08-19T02:17:45;16.55;;;12.80;;
55146;SDS011;41039;49.830;23.988;2022-08-19T02:20:10;14.00;;;11.90;;
55146;SDS011;41039;49.830;23.988;2022-08-19T02:22:37;16.67;;;12.73;;
55146;SDS011;41039;49.830;23.988;2022-08-19T02:25:02;15.98;;;12.55;;
55146;SDS011;41039;49.830;23.988;2022-08-19T02:27:29;17.20;;;13.35;;
55146;SDS011;41039;49.830;23.988;2022-08-19T02:29:55;14.30;;;11.70;;
55146;SDS011;41039;49.830;23.988;2022-08-19T02:32:21;13.30;;;11.85;;
55146;SDS011;41039;49.830;23.988;2022-08-19T02:34:47;16.05;;;11.35;;
55146;SDS011;41039;49.830;23.988;2022-08-19T02:37:12;14.70;;;11.98;;
55146;SDS011;41039;49.830;23.988;2022-08-19T02:40:13;15.98;;;11.75;;
55146;SDS011;41039;49.830;23.988;2022-08-19T02:42:38;14.48;;;11.52;;
55146;SDS011;41039;49.830;23.988;2022-08-19T02:45:05;13.80;;;11.73;;
55146;SDS011;41039;49.830;23.988;2022-08-19T02:47:31;14.90;;;12.25;;
55146;SDS011;41039;49.830;23.988;2022-08-19T02:49:56;16.38;;;12.43;;
55146;SDS011;41039;49.830;23.988;2022-08-19T02:52:21;15.60;;;12.40;;
55146;SDS011;41039;49.830;23.988;2022-08-19T02:54:48;16.15;;;12.27;;
55146;SDS011;41039;49.830;23.988;2022-08-19T02:57:13;15.93;;;12.20;;
55146;SDS011;41039;49.830;23.988;2022-08-19T02:59:38;14.90;;;11.93;;
55146;SDS011;41039;49.830;23.988;2022-08-19T03:02:04;16.75;;;13.65;;
55146;SDS011;41039;49.830;23.988;2022-08-19T03:04:30;15.82;;;11.88;;
55146;SDS011;41039;49.830;23.988;2022-08-19T03:06:55;16.27;;;12.15;;
55146;SDS011;41039;49.830;23.988;2022-08-19T03:09:20;14.77;;;12.17;;
55146;SDS011;41039;49.830;23.988;2022-08-19T03:11:45;14.93;;;11.77;;
55146;SDS011;41039;49.830;23.988;2022-08-19T03:14:11;14.68;;;11.55;;
55146;SDS011;41039;49.830;23.988;2022-08-19T03:16:44;14.77;;;12.40;;
55146;SDS011;41039;49.830;23.988;2022-08-19T03:19:11;12.98;;;11.68;;
55146;SDS011;41039;49.830;23.988;2022-08-19T03:21:36;18.20;;;12.98;;
55146;SDS011;41039;49.830;23.988;2022-08-19T03:24:03;16.10;;;12.57;;
55146;SDS011;41039;49.830;23.988;2022-08-19T03:26:29;14.00;;;12.38;;
55146;SDS011;41039;49.830;23.988;2022-08-19T03:28:54;15.23;;;12.25;;
55146;SDS011;41039;49.830;23.988;2022-08-19T03:31:21;21.10;;;12.70;;
55146;SDS011;41039;49.830;23.988;2022-08-19T03:33:49;17.90;;;13.45;;
55146;SDS011;41039;49.830;23.988;2022-08-19T03:36:19;16.92;;;12.60;;
55146;SDS011;41039;49.830;23.988;2022-08-19T03:38:51;20.13;;;13.15;;
55146;SDS011;41039;49.830;23.988;2022-08-19T03:41:20;19.83;;;13.48;;
55146;SDS011;41039;49.830;23.988;2022-08-19T03:43:46;20.75;;;12.20;;
55146;SDS011;41039;49.830;23.988;2022-08-19T03:46:13;24.92;;;12.70;;
55146;SDS011;41039;49.830;23.988;2022-08-19T03:48:40;14.60;;;11.50;;
55146;SDS011;41039;49.830;23.988;2022-08-19T03:51:05;19.08;;;12.15;;
55146;SDS011;41039;49.830;23.988;2022-08-19T03:53:31;14.50;;;11.52;;
55146;SDS011;41039;49.830;23.988;2022-08-19T03:55:57;26.58;;;13.55;;
55146;SDS011;41039;49.830;23.988;2022-08-19T03:58:24;20.15;;;11.68;;
55146;SDS011;41039;49.830;23.988;2022-08-19T04:00:50;15.98;;;12.18;;
55146;SDS011;41039;49.830;23.988;2022-08-19T04:03:15;17.50;;;13.43;;
55146;SDS011;41039;49.830;23.988;2022-08-19T04:05:41;23.75;;;13.57;;
55146;SDS011;41039;49.830;23.988;2022-08-19T04:08:06;18.37;;;12.50;;
55146;SDS011;41039;49.830;23.988;2022-08-19T04:10:37;25.92;;;13.50;;
55146;SDS011;41039;49.830;23.988;2022-08-19T04:13:03;18.60;;;11.43;;
55146;SDS011;41039;49.830;23.988;2022-08-19T04:15:30;16.83;;;14.02;;
55146;SDS011;41039;49.830;23.988;2022-08-19T04:17:59;20.55;;;14.10;;
55146;SDS011;41039;49.830;23.988;2022-08-19T04:20:24;19.00;;;12.80;;
55146;SDS011;41039;49.830;23.988;2022-08-19T04:22:49;17.17;;;13.27;;
55146;SDS011;41039;49.830;23.988;2022-08-19T04:25:14;21.13;;;13.57;;
55146;SDS011;41039;49.830;23.988;2022-08-19T04:27:40;18.75;;;13.30;;
55146;SDS011;41039;49.830;23.988;2022-08-19T04:30:11;14.90;;;11.77;;
55146;SDS011;41039;49.830;23.988;2022-08-19T04:32:37;19.42;;;14.23;;
55146;SDS011;41039;49.830;23.988;2022-08-19T04:35:02;18.23;;;14.67;;
55146;SDS011;41039;49.830;23.988;2022-08-19T04:37:27;22.27;;;16.58;;
55146;SDS011;41039;49.830;23.988;2022-08-19T04:39:56;21.88;;;14.55;;
55146;SDS011;41039;49.830;23.988;2022-08-19T04:42:40;31.27;;;26.63;;
55146;SDS011;41039;49.830;23.988;2022-08-19T04:45:06;25.67;;;19.48;;
55146;SDS011;41039;49.830;23.988;2022-08-19T04:47:32;17.38;;;15.18;;
55146;SDS011;41039;49.830;23.988;2022-08-19T04:49:57;18.30;;;14.13;;
55146;SDS011;41039;49.830;23.988;2022-08-19T04:52:23;21.33;;;13.82;;
55146;SDS011;41039;49.830;23.988;2022-08-19T04:54:48;18.73;;;13.43;;
55146;SDS011;41039;49.830;23.988;2022-08-19T04:57:13;17.45;;;13.82;;
55146;SDS011;41039;49.830;23.988;2022-08-19T04:59:39;24.45;;;14.25;;
55146;SDS011;41039;49.830;23.988;2022-08-19T05:02:04;17.85;;;13.77;;
55146;SDS011;41039;49.830;23.988;2022-08-19T05:04:29;15.05;;;12.07;;
55146;SDS011;41039;49.830;23.988;2022-08-19T05:06:56;17.25;;;12.82;;
55146;SDS011;41039;49.830;23.988;2022-08-19T05:09:22;15.25;;;12.73;;
55146;SDS011;41039;49.830;23.988;2022-08-19T05:11:47;14.52;;;11.73;;
55146;SDS011;41039;49.830;23.988;2022-08-19T05:14:13;15.30;;;12.73;;
55146;SDS011;41039;49.830;23.988;2022-08-19T05:16:38;16.83;;;12.57;;
55146;SDS011;41039;49.830;23.988;2022-08-19T05:19:03;14.40;;;12.23;;
55146;SDS011;41039;49.830;23.988;2022-08-19T05:21:47;15.15;;;12.05;;
55146;SDS011;41039;49.830;23.988;2022-08-19T05:24:31;16.85;;;11.02;;
55146;SDS011;41039;49.830;23.988;2022-08-19T05:26:59;16.30;;;12.93;;
55146;SDS011;41039;49.830;23.988;2022-08-19T05:29:25;17.73;;;11.65;;
55146;SDS011;41039;49.830;23.988;2022-08-19T05:31:51;13.88;;;11.73;;
55146;SDS011;41039;49.830;23.988;2022-08-19T05:34:17;20.77;;;13.05;;
55146;SDS011;41039;49.830;23.988;2022-08-19T05:36:43;15.52;;;11.85;;
55146;SDS011;41039;49.830;23.988;2022-08-19T05:39:11;13.23;;;10.55;;
55146;SDS011;41039;49.830;23.988;2022-08-19T05:41:40;14.18;;;10.60;;
55146;SDS011;41039;49.830;23.988;2022-08-19T05:44:06;13.60;;;11.20;;
55146;SDS011;41039;49.830;23.988;2022-08-19T05:46:34;14.50;;;11.45;;
55146;SDS011;41039;49.830;23.988;2022-08-19T05:48:59;15.40;;;10.80;;
55146;SDS011;41039;49.830;23.988;2022-08-19T05:51:24;14.57;;;10.30;;
55146;SDS011;41039;49.830;23.988;2022-08-19T05:53:50;13.83;;;11.30;;
55146;SDS011;41039;49.830;23.988;2022-08-19T05:56:15;17.40;;;10.98;;
55146;SDS011;41039;49.830;23.988;2022-08-19T05:58:42;15.32;;;10.82;;
55146;SDS011;41039;49.830;23.988;2022-08-19T06:01:14;12.77;;;9.88;;
55146;SDS011;41039;49.830;23.988;2022-08-19T06:06:06;18.83;;;10.95;;
55146;SDS011;41039;49.830;23.988;2022-08-19T06:08:33;15.10;;;11.10;;
55146;SDS011;41039;49.830;23.988;2022-08-19T06:10:58;17.88;;;11.45;;
55146;SDS011;41039;49.830;23.988;2022-08-19T06:13:36;15.50;;;11.02;;
55146;SDS011;41039;49.830;23.988;2022-08-19T06:16:01;19.47;;;10.77;;
55146;SDS011;41039;49.830;23.988;2022-08-19T06:18:27;12.85;;;10.32;;
55146;SDS011;41039;49.830;23.988;2022-08-19T06:20:52;13.70;;;9.48;;
55146;SDS011;41039;49.830;23.988;2022-08-19T06:23:18;12.80;;;9.73;;
55146;SDS011;41039;49.830;23.988;2022-08-19T06:25:45;13.73;;;9.55;;
55146;SDS011;41039;49.830;23.988;2022-08-19T06:28:10;10.60;;;8.90;;
55146;SDS011;41039;49.830;23.988;2022-08-19T06:30:36;9.88;;;7.95;;
55146;SDS011;41039;49.830;23.988;2022-08-19T06:33:02;9.32;;;7.43;;
55146;SDS011;41039;49.830;23.988;2022-08-19T06:35:27;15.57;;;8.88;;
55146;SDS011;41039;49.830;23.988;2022-08-19T06:37:54;15.50;;;8.57;;
55146;SDS011;41039;49.830;23.988;2022-08-19T06:40:19;14.82;;;7.85;;
55146;SDS011;41039;49.830;23.988;2022-08-19T06:42:44;12.57;;;8.45;;
55146;SDS011;41039;49.830;23.988;2022-08-19T06:45:10;14.50;;;8.13;;
55146;SDS011;41039;49.830;23.988;2022-08-19T06:47:35;12.82;;;8.55;;
55146;SDS011;41039;49.830;23.988;2022-08-19T06:50:01;15.48;;;8.18;;
55146;SDS011;41039;49.830;23.988;2022-08-19T06:52:31;10.35;;;8.27;;
55146;SDS011;41039;49.830;23.988;2022-08-19T06:54:58;14.35;;;8.13;;
55146;SDS011;41039;49.830;23.988;2022-08-19T06:57:24;13.55;;;7.88;;
55146;SDS011;41039;49.830;23.988;2022-08-19T06:59:49;11.65;;;7.70;;
55146;SDS011;41039;49.830;23.988;2022-08-19T07:02:15;10.68;;;7.10;;
55146;SDS011;41039;49.830;23.988;2022-08-19T07:04:40;11.10;;;6.68;;
55146;SDS011;41039;49.830;23.988;2022-08-19T07:07:07;9.43;;;7.10;;
55146;SDS011;41039;49.830;23.988;2022-08-19T07:09:34;10.13;;;5.03;;
55146;SDS011;41039;49.830;23.988;2022-08-19T07:12:02;8.43;;;5.15;;
55146;SDS011;41039;49.830;23.988;2022-08-19T07:14:27;7.57;;;5.43;;
55146;SDS011;41039;49.830;23.988;2022-08-19T07:16:53;10.63;;;4.80;;
55146;SDS011;41039;49.830;23.988;2022-08-19T07:19:20;8.48;;;5.22;;
55146;SDS011;41039;49.830;23.988;2022-08-19T07:21:46;5.20;;;4.32;;
55146;SDS011;41039;49.830;23.988;2022-08-19T07:24:12;14.07;;;5.28;;
55146;SDS011;41039;49.830;23.988;2022-08-19T07:26:38;7.88;;;5.20;;
55146;SDS011;41039;49.830;23.988;2022-08-19T07:29:04;7.68;;;4.82;;
55146;SDS011;41039;49.830;23.988;2022-08-19T07:31:30;6.10;;;4.90;;
55146;SDS011;41039;49.830;23.988;2022-08-19T07:33:55;8.18;;;4.70;;
55146;SDS011;41039;49.830;23.988;2022-08-19T07:36:22;7.78;;;4.15;;
55146;SDS011;41039;49.830;23.988;2022-08-19T07:38:49;8.95;;;4.72;;
55146;SDS011;41039;49.830;23.988;2022-08-19T07:41:17;8.43;;;4.18;;
55146;SDS011;41039;49.830;23.988;2022-08-19T07:43:43;9.35;;;4.75;;
55146;SDS011;41039;49.830;23.988;2022-08-19T07:46:09;15.75;;;4.95;;
55146;SDS011;41039;49.830;23.988;2022-08-19T07:48:35;7.82;;;4.45;;
55146;SDS011;41039;49.830;23.988;2022-08-19T07:51:04;7.95;;;4.55;;
55146;SDS011;41039;49.830;23.988;2022-08-19T07:53:30;8.32;;;4.45;;
55146;SDS011;41039;49.830;23.988;2022-08-19T07:55:56;11.80;;;4.85;;
55146;SDS011;41039;49.830;23.988;2022-08-19T07:58:30;6.90;;;4.57;;
55146;SDS011;41039;49.830;23.988;2022-08-19T08:00:55;8.48;;;5.15;;
55146;SDS011;41039;49.830;23.988;2022-08-19T08:03:21;8.20;;;4.10;;
55146;SDS011;41039;49.830;23.988;2022-08-19T08:06:06;9.50;;;4.80;;
55146;SDS011;41039;49.830;23.988;2022-08-19T08:08:54;5.18;;;4.68;;
55146;SDS011;41039;49.830;23.988;2022-08-19T08:11:39;7.22;;;5.13;;
55146;SDS011;41039;49.830;23.988;2022-08-19T08:14:04;9.00;;;5.53;;
55146;SDS011;41039;49.830;23.988;2022-08-19T08:16:31;7.97;;;4.57;;
55146;SDS011;41039;49.830;23.988;2022-08-19T08:18:58;7.10;;;4.80;;
55146;SDS011;41039;49.830;23.988;2022-08-19T08:21:24;5.60;;;4.28;;
55146;SDS011;41039;49.830;23.988;2022-08-19T08:23:49;6.47;;;4.88;;
55146;SDS011;41039;49.830;23.988;2022-08-19T08:26:16;13.07;;;4.60;;
55146;SDS011;41039;49.830;23.988;2022-08-19T08:28:41;5.00;;;3.87;;
55146;SDS011;41039;49.830;23.988;2022-08-19T08:31:07;6.63;;;4.17;;
55146;SDS011;41039;49.830;23.988;2022-08-19T08:33:32;10.40;;;5.22;;
55146;SDS011;41039;49.830;23.988;2022-08-19T08:35:57;9.15;;;4.80;;
55146;SDS011;41039;49.830;23.988;2022-08-19T08:38:22;5.73;;;4.53;;
55146;SDS011;41039;49.830;23.988;2022-08-19T08:40:49;7.27;;;4.57;;
55146;SDS011;41039;49.830;23.988;2022-08-19T08:43:21;6.47;;;4.25;;
55146;SDS011;41039;49.830;23.988;2022-08-19T08:45:50;8.88;;;4.18;;
55146;SDS011;41039;49.830;23.988;2022-08-19T08:48:30;7.13;;;4.40;;
55146;SDS011;41039;49.830;23.988;2022-08-19T08:50:58;9.07;;;4.43;;
55146;SDS011;41039;49.830;23.988;2022-08-19T08:53:24;6.20;;;4.00;;
55146;SDS011;41039;49.830;23.988;2022-08-19T08:55:50;9.60;;;4.82;;
55146;SDS011;41039;49.830;23.988;2022-08-19T09:01:09;9.60;;;4.90;;
55146;SDS011;41039;49.830;23.988;2022-08-19T09:03:36;6.70;;;3.85;;
55146;SDS011;41039;49.830;23.988;2022-08-19T09:06:07;7.35;;;4.25;;
55146;SDS011;41039;49.830;23.988;2022-08-19T09:10:57;6.87;;;3.70;;
55146;SDS011;41039;49.830;23.988;2022-08-19T09:16:03;7.88;;;3.90;;
55146;SDS011;41039;49.830;23.988;2022-08-19T09:18:40;6.20;;;4.18;;
55146;SDS011;41039;49.830;23.988;2022-08-19T09:21:06;7.82;;;5.05;;
55146;SDS011;41039;49.830;23.988;2022-08-19T09:23:32;8.13;;;4.18;;
55146;SDS011;41039;49.830;23.988;2022-08-19T09:25:57;8.27;;;4.60;;
55146;SDS011;41039;49.830;23.988;2022-08-19T09:28:23;5.83;;;4.00;;
55146;SDS011;41039;49.830;23.988;2022-08-19T09:30:48;6.33;;;3.80;;
55146;SDS011;41039;49.830;23.988;2022-08-19T09:33:13;9.93;;;4.20;;
55146;SDS011;41039;49.830;23.988;2022-08-19T09:35:38;6.50;;;3.77;;
55146;SDS011;41039;49.830;23.988;2022-08-19T09:38:04;8.65;;;5.35;;
55146;SDS011;41039;49.830;23.988;2022-08-19T09:40:29;9.05;;;4.57;;
55146;SDS011;41039;49.830;23.988;2022-08-19T09:42:55;10.10;;;4.18;;
55146;SDS011;41039;49.830;23.988;2022-08-19T09:45:22;5.90;;;4.32;;
55146;SDS011;41039;49.830;23.988;2022-08-19T09:47:51;9.20;;;5.38;;
55146;SDS011;41039;49.830;23.988;2022-08-19T09:50:17;9.32;;;5.22;;
55146;SDS011;41039;49.830;23.988;2022-08-19T09:52:43;6.32;;;4.95;;
55146;SDS011;41039;49.830;23.988;2022-08-19T09:55:09;8.30;;;4.90;;
55146;SDS011;41039;49.830;23.988;2022-08-19T09:57:35;9.43;;;4.95;;
55146;SDS011;41039;49.830;23.988;2022-08-19T10:00:00;8.27;;;4.97;;
55146;SDS011;41039;49.830;23.988;2022-08-19T10:02:25;7.80;;;4.82;;
55146;SDS011;41039;49.830;23.988;2022-08-19T10:04:51;8.17;;;4.40;;
55146;SDS011;41039;49.830;23.988;2022-08-19T10:07:34;5.38;;;4.05;;
55146;SDS011;41039;49.830;23.988;2022-08-19T10:10:00;7.50;;;5.00;;
55146;SDS011;41039;49.830;23.988;2022-08-19T10:12:25;5.40;;;4.28;;
55146;SDS011;41039;49.830;23.988;2022-08-19T10:14:51;10.00;;;4.83;;
55146;SDS011;41039;49.830;23.988;2022-08-19T10:17:18;7.03;;;4.15;;
55146;SDS011;41039;49.830;23.988;2022-08-19T10:19:43;5.63;;;3.88;;
55146;SDS011;41039;49.830;23.988;2022-08-19T10:22:09;7.65;;;4.53;;
55146;SDS011;41039;49.830;23.988;2022-08-19T10:24:39;7.20;;;4.30;;
55146;SDS011;41039;49.830;23.988;2022-08-19T10:27:04;6.90;;;4.35;;
55146;SDS011;41039;49.830;23.988;2022-08-19T10:29:30;6.25;;;4.45;;
55146;SDS011;41039;49.830;23.988;2022-08-19T10:31:57;6.88;;;4.47;;
55146;SDS011;41039;49.830;23.988;2022-08-19T10:34:23;6.85;;;4.25;;
55146;SDS011;41039;49.830;23.988;2022-08-19T10:36:48;7.85;;;3.75;;
55146;SDS011;41039;49.830;23.988;2022-08-19T10:39:14;8.35;;;4.40;;
55146;SDS011;41039;49.830;23.988;2022-08-19T10:41:40;9.30;;;4.18;;
55146;SDS011;41039;49.830;23.988;2022-08-19T10:44:06;5.28;;;3.53;;
55146;SDS011;41039;49.830;23.988;2022-08-19T10:46:32;4.32;;;3.53;;
55146;SDS011;41039;49.830;23.988;2022-08-19T10:48:59;6.45;;;3.40;;
55146;SDS011;41039;49.830;23.988;2022-08-19T10:51:25;9.18;;;4.25;;
55146;SDS011;41039;49.830;23.988;2022-08-19T10:54:09;9.05;;;4.18;;
55146;SDS011;41039;49.830;23.988;2022-08-19T10:56:35;6.30;;;4.13;;
55146;SDS011;41039;49.830;23.988;2022-08-19T11:01:44;6.67;;;3.57;;
55146;SDS011;41039;49.830;23.988;2022-08-19T11:04:10;4.68;;;4.00;;
55146;SDS011;41039;49.830;23.988;2022-08-19T11:06:38;5.93;;;3.60;;
55146;SDS011;41039;49.830;23.988;2022-08-19T11:09:05;6.45;;;3.25;;
55146;SDS011;41039;49.830;23.988;2022-08-19T11:11:31;5.50;;;3.67;;
55146;SDS011;41039;49.830;23.988;2022-08-19T11:13:57;11.02;;;4.20;;
55146;SDS011;41039;49.830;23.988;2022-08-19T11:16:23;4.57;;;3.63;;
55146;SDS011;41039;49.830;23.988;2022-08-19T11:18:51;6.50;;;4.07;;
55146;SDS011;41039;49.830;23.988;2022-08-19T11:21:22;4.05;;;3.40;;
55146;SDS011;41039;49.830;23.988;2022-08-19T11:23:48;6.78;;;3.42;;
55146;SDS011;41039;49.830;23.988;2022-08-19T11:26:14;6.35;;;3.55;;
55146;SDS011;41039;49.830;23.988;2022-08-19T11:28:40;4.60;;;3.25;;
55146;SDS011;41039;49.830;23.988;2022-08-19T11:31:12;4.40;;;3.30;;
55146;SDS011;41039;49.830;23.988;2022-08-19T11:33:38;8.80;;;4.07;;
55146;SDS011;41039;49.830;23.988;2022-08-19T11:36:03;4.72;;;3.67;;
55146;SDS011;41039;49.830;23.988;2022-08-19T11:38:29;7.43;;;3.85;;
55146;SDS011;41039;49.830;23.988;2022-08-19T11:40:58;6.93;;;3.90;;
55146;SDS011;41039;49.830;23.988;2022-08-19T11:43:24;5.78;;;3.70;;
55146;SDS011;41039;49.830;23.988;2022-08-19T11:45:51;8.90;;;4.43;;
55146;SDS011;41039;49.830;23.988;2022-08-19T11:48:16;7.87;;;3.67;;
55146;SDS011;41039;49.830;23.988;2022-08-19T11:50:42;7.45;;;3.88;;
55146;SDS011;41039;49.830;23.988;2022-08-19T11:53:08;7.70;;;4.20;;
55146;SDS011;41039;49.830;23.988;2022-08-19T11:55:37;8.98;;;4.43;;
55146;SDS011;41039;49.830;23.988;2022-08-19T11:58:03;7.72;;;3.45;;
55146;SDS011;41039;49.830;23.988;2022-08-19T12:00:31;5.93;;;3.42;;
55146;SDS011;41039;49.830;23.988;2022-08-19T12:02:56;8.32;;;3.72;;
55146;SDS011;41039;49.830;23.988;2022-08-19T12:05:21;6.00;;;3.07;;
55146;SDS011;41039;49.830;23.988;2022-08-19T12:07:47;4.37;;;3.20;;
55146;SDS011;41039;49.830;23.988;2022-08-19T12:10:12;5.53;;;3.17;;
55146;SDS011;41039;49.830;23.988;2022-08-19T12:12:37;5.60;;;3.33;;
55146;SDS011;41039;49.830;23.988;2022-08-19T12:15:07;4.95;;;3.20;;
55146;SDS011;41039;49.830;23.988;2022-08-19T12:17:33;7.57;;;3.60;;
55146;SDS011;41039;49.830;23.988;2022-08-19T12:19:58;7.82;;;4.55;;
55146;SDS011;41039;49.830;23.988;2022-08-19T12:22:23;7.87;;;4.20;;
55146;SDS011;41039;49.830;23.988;2022-08-19T12:24:49;5.07;;;3.38;;
55146;SDS011;41039;49.830;23.988;2022-08-19T12:27:15;7.20;;;3.00;;
55146;SDS011;41039;49.830;23.988;2022-08-19T12:29:41;4.47;;;4.03;;
55146;SDS011;41039;49.830;23.988;2022-08-19T12:32:06;6.37;;;3.87;;
55146;SDS011;41039;49.830;23.988;2022-08-19T12:34:32;5.55;;;3.20;;
55146;SDS011;41039;49.830;23.988;2022-08-19T12:36:58;5.10;;;3.70;;
55146;SDS011;41039;49.830;23.988;2022-08-19T12:39:24;4.53;;;3.28;;
55146;SDS011;41039;49.830;23.988;2022-08-19T12:41:50;4.50;;;3.45;;
55146;SDS011;41039;49.830;23.988;2022-08-19T12:44:15;4.90;;;3.40;;
55146;SDS011;41039;49.830;23.988;2022-08-19T12:46:40;9.85;;;4.28;;
55146;SDS011;41039;49.830;23.988;2022-08-19T12:49:06;10.33;;;4.40;;
55146;SDS011;41039;49.830;23.988;2022-08-19T12:51:31;7.05;;;3.80;;
55146;SDS011;41039;49.830;23.988;2022-08-19T12:53:56;6.60;;;4.27;;
55146;SDS011;41039;49.830;23.988;2022-08-19T12:56:22;11.40;;;4.07;;
55146;SDS011;41039;49.830;23.988;2022-08-19T12:58:47;8.17;;;3.50;;
55146;SDS011;41039;49.830;23.988;2022-08-19T13:01:13;8.30;;;3.67;;
55146;SDS011;41039;49.830;23.988;2022-08-19T13:03:39;8.40;;;4.28;;
55146;SDS011;41039;49.830;23.988;2022-08-19T13:06:04;7.35;;;4.30;;
55146;SDS011;41039;49.830;23.988;2022-08-19T13:08:30;7.97;;;3.72;;
55146;SDS011;41039;49.830;23.988;2022-08-19T13:10:55;7.35;;;3.70;;
55146;SDS011;41039;49.830;23.988;2022-08-19T13:13:21;8.40;;;4.28;;
55146;SDS011;41039;49.830;23.988;2022-08-19T13:15:46;7.18;;;3.78;;
55146;SDS011;41039;49.830;23.988;2022-08-19T13:18:12;6.05;;;3.92;;
55146;SDS011;41039;49.830;23.988;2022-08-19T13:20:39;6.70;;;3.90;;
55146;SDS011;41039;49.830;23.988;2022-08-19T13:23:05;7.53;;;4.05;;
55146;SDS011;41039;49.830;23.988;2022-08-19T13:25:31;11.48;;;4.13;;
55146;SDS011;41039;49.830;23.988;2022-08-19T13:27:56;5.80;;;3.95;;
55146;SDS011;41039;49.830;23.988;2022-08-19T13:30:22;9.20;;;4.05;;
55146;SDS011;41039;49.830;23.988;2022-08-19T13:33:07;7.57;;;3.67;;
55146;SDS011;41039;49.830;23.988;2022-08-19T13:38:06;9.18;;;3.95;;
55146;SDS011;41039;49.830;23.988;2022-08-19T13:40:32;8.50;;;3.47;;
55146;SDS011;41039;49.830;23.988;2022-08-19T13:43:02;5.95;;;3.60;;
55146;SDS011;41039;49.830;23.988;2022-08-19T13:45:28;7.20;;;4.22;;
55146;SDS011;41039;49.830;23.988;2022-08-19T13:47:54;12.95;;;4.18;;
55146;SDS011;41039;49.830;23.988;2022-08-19T13:50:22;5.70;;;4.93;;
55146;SDS011;41039;49.830;23.988;2022-08-19T13:52:47;8.73;;;4.22;;
55146;SDS011;41039;49.830;23.988;2022-08-19T13:55:13;4.82;;;4.05;;
55146;SDS011;41039;49.830;23.988;2022-08-19T13:57:39;5.97;;;3.60;;
55146;SDS011;41039;49.830;23.988;2022-08-19T14:00:08;6.10;;;4.00;;
55146;SDS011;41039;49.830;23.988;2022-08-19T14:02:35;4.95;;;3.90;;
55146;SDS011;41039;49.830;23.988;2022-08-19T14:05:01;7.65;;;4.00;;
55146;SDS011;41039;49.830;23.988;2022-08-19T14:07:26;8.02;;;4.13;;
55146;SDS011;41039;49.830;23.988;2022-08-19T14:09:51;8.50;;;3.75;;
55146;SDS011;41039;49.830;23.988;2022-08-19T14:12:20;4.67;;;3.67;;
55146;SDS011;41039;49.830;23.988;2022-08-19T14:14:45;5.93;;;4.13;;
55146;SDS011;41039;49.830;23.988;2022-08-19T14:17:11;7.68;;;3.60;;
55146;SDS011;41039;49.830;23.988;2022-08-19T14:19:36;7.50;;;4.47;;
55146;SDS011;41039;49.830;23.988;2022-08-19T14:22:01;5.60;;;3.63;;
55146;SDS011;41039;49.830;23.988;2022-08-19T14:24:26;7.75;;;3.70;;
55146;SDS011;41039;49.830;23.988;2022-08-19T14:26:52;5.30;;;4.38;;
55146;SDS011;41039;49.830;23.988;2022-08-19T14:29:17;5.20;;;4.00;;
55146;SDS011;41039;49.830;23.988;2022-08-19T14:31:43;7.57;;;3.53;;
55146;SDS011;41039;49.830;23.988;2022-08-19T14:34:09;9.27;;;3.78;;
55146;SDS011;41039;49.830;23.988;2022-08-19T14:36:35;7.97;;;4.13;;